Observations for EAST MIDLANDS, United Kingdom (EGNX)

EGNX 201550Z 22014KT 9999 SCT019 BKN033 12/09 Q1006 
EGNX 201520Z 22012KT 9999 SCT020 BKN032 13/09 Q1006 
EGNX 201450Z 24015KT 9999 SCT022 BKN032 13/09 Q1005 
EGNX 201420Z 24015KT 9999 BKN025 13/09 Q1005
EGNX 201350Z 25010KT 9999 SCT013 BKN026 13/11 Q1005 
EGNX 201320Z 26012KT 9999 FEW013 BKN020 13/11 Q1005 
EGNX 201250Z 25016KT 9999 BKN013 14/11 Q1005
EGNX 201220Z 26017KT 9999 BKN014 13/11 Q1004
EGNX 201150Z 27018KT 9999 FEW014 BKN038 13/11 Q1004 
EGNX 201120Z 26021KT 5000 -SHRA SCT007 BKN014 12/11 Q1004   
EGNX 201050Z 26016KT 9999 SCT007 BKN012 13/12 Q1003 
EGNX 201020Z 27017KT 9999 -RADZ BKN007 BKN017 13/12 Q1002   
EGNX 200950Z 26017KT 9999 BKN006 13/12 Q1002
EGNX 200920Z 26015KT 9000 -RA BKN006 12/12 Q1001
EGNX 200850Z 25012KT 9999 -RA BKN007 12/12 Q1001
EGNX 200820Z 26013KT 9999 BKN007 12/11 Q1000
EGNX 200750Z 27009KT 9999 BKN008 12/11 Q0999
EGNX 200720Z 27011KT 9999 BKN006 11/11 Q0999
EGNX 200650Z 27011KT 9000 BKN004 BKN014 11/11 Q0998 
EGNX 200620Z 27013KT 6000 BKN002 BKN009 11/11 Q0997 
EGNX 200550Z 26009KT 9999 BKN005 11/11 Q0996 RERA   
EGNX 200520Z 24006KT 6000 RA BKN006 11/11 Q0996 
EGNX 200450Z 20004KT 5000 RA FEW005 SCT018 BKN033 11/11 Q0995   
EGNX 200420Z 19004KT 150V250 5000 RA FEW003 SCT006 BKN020 11/11 Q0995   
EGNX 200350Z 15005KT 130V190 5000 BR SCT006 BKN013 11/11 Q0994  
EGNX 200320Z 13006KT 6000 -RADZ BKN003 OVC013 11/11 Q0994   
EGNX 200250Z 14008KT 8000 -RADZ OVC004 11/11 Q0994  
EGNX 200220Z 15009KT 9999 OVC013 12/10 Q0994
EGNX 200150Z 16010KT 140V210 9999 BKN015 12/10 Q0994
EGNX 200120Z 16011KT 130V210 9999 BKN017 12/10 Q0994
EGNX 200050Z 18014KT 9999 BKN025 13/10 Q0995
EGNX 200020Z 17017KT 9999 BKN015 13/10 Q0995
EGNX 192350Z 17013KT 9999 BKN016 13/12 Q0995
EGNX 192320Z 16015KT 9999 SCT011 BKN020 14/12 Q0995 
EGNX 192250Z 15015KT 9999 VCSH BKN010 13/12 Q0995   
EGNX 192220Z 16014KT 9999 BKN013 14/12 Q0995
EGNX 192150Z 15011KT 9999 BKN011 14/13 Q0996
EGNX 192120Z 15013KT 9999 BKN011 14/12 Q0996
EGNX 192050Z 16013KT 9999 -RA SCT020 BKN042 14/12 Q0997 
EGNX 192020Z 15013KT 9999 -RA SCT012 BKN040 14/12 Q0997 
EGNX 191950Z 15012KT 9999 -RA SCT011 BKN045 13/12 Q0997 
EGNX 191920Z 15010KT 9999 -RADZ SCT035 13/12 Q0997  
EGNX 191850Z 16012KT 9999 -RADZ FEW010 SCT035 13/12 Q0998   
EGNX 191820Z 17013KT 9999 -RA FEW010 SCT035 14/12 Q0998 
EGNX 191750Z 17012G23KT 160V220 9999 FEW012 14/12 Q0998 
EGNX 191720Z 18009KT 9999 FEW009 SCT038 13/13 Q0998 
EGNX 191650Z 20009KT 9000 FEW018 BKN037 13/12 Q0998 RERA
EGNX 191620Z 16012G24KT 130V200 2000 RA BKN004 OVC020 14/13 Q0998   
EGNX 191550Z 14009KT 4000 BR BKN009 15/15 Q0998 
EGNX 191520Z 13009KT 070V140 3500 BR BKN008 15/15 Q0998